createdAt,value
2022-07-26T00:00:10.101Z,22.15
2022-07-26T00:02:36.828Z,22.01
2022-07-26T00:05:03.714Z,22.01
2022-07-26T00:07:36.455Z,22.09
2022-07-26T00:10:05.426Z,21.98
2022-07-26T00:12:32.828Z,21.99
2022-07-26T00:14:59.705Z,21.87
2022-07-26T00:17:26.272Z,21.93
2022-07-26T00:19:53.029Z,22.06
2022-07-26T00:22:34.644Z,22.04
2022-07-26T00:25:06.441Z,21.93
2022-07-26T00:27:37.419Z,21.93
2022-07-26T00:30:09.084Z,21.71
2022-07-26T00:32:37.064Z,21.72
2022-07-26T00:35:04.416Z,21.69
2022-07-26T00:37:30.975Z,21.58
2022-07-26T00:39:57.566Z,21.62
2022-07-26T00:42:24.108Z,21.49
2022-07-26T00:44:51.010Z,21.55
2022-07-26T00:47:17.589Z,21.61
2022-07-26T00:49:44.492Z,21.60
2022-07-26T00:52:12.220Z,21.51
2022-07-26T00:54:40.701Z,21.46
2022-07-26T00:57:07.329Z,21.44
2022-07-26T00:59:34.156Z,21.43
2022-07-26T01:02:01.685Z,21.39
2022-07-26T01:04:28.797Z,21.24
2022-07-26T01:06:55.742Z,21.05
2022-07-26T01:09:23.103Z,20.82
2022-07-26T01:11:50.040Z,20.76
2022-07-26T01:14:20.421Z,20.71
2022-07-26T01:16:47.461Z,20.54
2022-07-26T01:19:14.594Z,20.49
2022-07-26T01:21:42.217Z,20.40
2022-07-26T01:24:09.848Z,20.39
2022-07-26T01:26:37.887Z,20.34
2022-07-26T01:29:05.208Z,20.28
2022-07-26T01:31:32.114Z,20.31
2022-07-26T01:33:58.755Z,20.28
2022-07-26T01:36:25.509Z,20.35
2022-07-26T01:38:52.282Z,20.39
2022-07-26T01:41:21.404Z,20.34
2022-07-26T01:44:05.164Z,20.28
2022-07-26T01:46:31.981Z,20.25
2022-07-26T01:48:58.759Z,20.25
2022-07-26T01:51:25.368Z,20.28
2022-07-26T01:53:51.948Z,20.27
2022-07-26T01:56:18.581Z,20.25
2022-07-26T01:58:45.294Z,20.18
2022-07-26T02:01:12.838Z,20.13
2022-07-26T02:03:39.580Z,20.10
2022-07-26T02:06:06.316Z,20.01
2022-07-26T02:08:33.541Z,19.97
2022-07-26T02:11:00.543Z,19.98
2022-07-26T02:13:39.387Z,19.92
2022-07-26T02:16:09.474Z,19.90
2022-07-26T02:18:40.567Z,19.82
2022-07-26T02:21:07.886Z,19.79
2022-07-26T02:23:34.974Z,19.80
2022-07-26T02:26:02.074Z,19.72
2022-07-26T02:28:28.880Z,19.66
2022-07-26T02:30:55.544Z,19.74
2022-07-26T02:33:38.519Z,19.74
2022-07-26T02:36:05.476Z,19.72
2022-07-26T02:38:32.217Z,19.66
2022-07-26T02:40:58.796Z,19.62
2022-07-26T02:43:27.082Z,19.56
2022-07-26T02:46:01.080Z,19.56
2022-07-26T02:48:29.369Z,19.59
2022-07-26T02:50:56.125Z,19.63
2022-07-26T02:53:22.744Z,19.47
2022-07-26T02:55:49.204Z,19.41
2022-07-26T02:58:15.756Z,19.46
2022-07-26T03:00:42.435Z,19.37
2022-07-26T03:03:09.170Z,19.31
2022-07-26T03:05:35.782Z,19.23
2022-07-26T03:08:02.358Z,19.31
2022-07-26T03:10:29.121Z,19.23
2022-07-26T03:12:56.839Z,19.18
2022-07-26T03:15:23.480Z,19.13
2022-07-26T03:17:50.238Z,18.99
2022-07-26T03:20:17.351Z,18.86
2022-07-26T03:22:43.986Z,18.82
2022-07-26T03:25:10.703Z,18.72
2022-07-26T03:27:37.457Z,18.70
2022-07-26T03:30:05.630Z,18.68
2022-07-26T03:32:32.392Z,18.66
2022-07-26T03:34:59.018Z,18.57
2022-07-26T03:37:25.734Z,18.51
2022-07-26T03:40:12.922Z,18.48
2022-07-26T03:42:39.481Z,18.47
2022-07-26T03:45:06.701Z,18.30
2022-07-26T03:47:33.464Z,18.34
2022-07-26T03:50:00.125Z,18.50
2022-07-26T03:52:26.744Z,18.62
2022-07-26T03:54:53.423Z,18.73
2022-07-26T03:57:19.956Z,18.83
2022-07-26T03:59:46.678Z,18.85
2022-07-26T04:02:13.478Z,18.93
2022-07-26T04:04:40.285Z,18.98
2022-07-26T04:07:07.459Z,19.00
2022-07-26T04:09:35.981Z,19.13
2022-07-26T04:12:02.651Z,19.11
2022-07-26T04:14:29.361Z,19.10
2022-07-26T04:16:56.136Z,19.13
2022-07-26T04:19:22.935Z,19.19
2022-07-26T04:21:49.703Z,19.15
2022-07-26T04:24:16.370Z,19.24
2022-07-26T04:26:43.077Z,19.28
2022-07-26T04:29:09.780Z,19.29
2022-07-26T04:31:38.506Z,19.37
2022-07-26T04:34:05.576Z,19.33
2022-07-26T04:36:32.587Z,19.37
2022-07-26T04:38:59.305Z,19.28
2022-07-26T04:41:26.051Z,19.41
2022-07-26T04:43:52.725Z,19.48
2022-07-26T04:46:19.513Z,19.57
2022-07-26T04:48:46.198Z,19.64
2022-07-26T04:51:12.841Z,19.70
2022-07-26T04:53:39.527Z,19.76
2022-07-26T04:56:06.441Z,19.79
2022-07-26T04:58:33.332Z,19.72
2022-07-26T05:01:10.150Z,19.89
2022-07-26T05:03:37.242Z,19.86
2022-07-26T05:06:04.331Z,19.84
2022-07-26T05:08:31.004Z,19.84
2022-07-26T05:10:57.584Z,19.91
2022-07-26T05:13:29.852Z,20.03
2022-07-26T05:15:58.078Z,20.27
2022-07-26T05:18:25.656Z,20.45
2022-07-26T05:20:52.678Z,20.56
2022-07-26T05:23:20.742Z,20.81
2022-07-26T05:25:48.048Z,20.73
2022-07-26T05:28:14.861Z,20.86
2022-07-26T05:30:41.621Z,21.02
2022-07-26T05:33:08.589Z,20.94
2022-07-26T05:35:35.282Z,20.93
2022-07-26T05:38:02.048Z,21.07
2022-07-26T05:40:28.716Z,21.18
2022-07-26T05:42:55.485Z,21.29
2022-07-26T05:45:22.171Z,21.51
2022-07-26T05:47:52.986Z,21.89
2022-07-26T05:50:20.174Z,22.25
2022-07-26T05:52:46.824Z,22.29
2022-07-26T05:55:14.113Z,22.46
2022-07-26T05:57:42.154Z,22.53
2022-07-26T06:00:12.063Z,22.30
2022-07-26T06:02:38.946Z,22.32
2022-07-26T06:05:05.919Z,21.80
2022-07-26T06:07:32.823Z,22.00
2022-07-26T06:10:00.147Z,22.26
2022-07-26T06:12:26.822Z,22.50
2022-07-26T06:14:53.561Z,23.00
2022-07-26T06:17:20.385Z,23.04
2022-07-26T06:19:47.866Z,23.48
2022-07-26T06:22:15.371Z,23.81
2022-07-26T06:24:42.166Z,24.35
2022-07-26T06:27:08.841Z,24.31
2022-07-26T06:29:35.595Z,24.19
2022-07-26T06:32:02.508Z,24.48
2022-07-26T06:34:29.381Z,24.58
2022-07-26T06:36:56.362Z,24.41
2022-07-26T06:39:23.209Z,24.56
2022-07-26T06:41:49.875Z,24.89
2022-07-26T06:44:16.730Z,24.86
2022-07-26T06:46:43.411Z,24.75
2022-07-26T06:49:10.073Z,24.94
2022-07-26T06:51:37.091Z,25.41
2022-07-26T06:54:05.758Z,25.09
2022-07-26T06:56:33.069Z,24.83
2022-07-26T06:58:59.848Z,24.88
2022-07-26T07:01:58.611Z,24.83
2022-07-26T07:04:13.119Z,25.29
2022-07-26T07:06:39.911Z,25.67
2022-07-26T07:09:07.780Z,25.53
2022-07-26T07:11:35.600Z,25.24
2022-07-26T07:14:03.466Z,25.40
2022-07-26T07:16:30.285Z,25.90
2022-07-26T07:18:57.193Z,26.69
2022-07-26T07:21:23.874Z,26.91
2022-07-26T07:23:50.607Z,26.97
2022-07-26T07:26:17.343Z,26.84
2022-07-26T07:28:44.142Z,26.48
2022-07-26T07:31:14.028Z,26.68
2022-07-26T07:33:52.499Z,27.31
2022-07-26T07:36:20.923Z,27.62
2022-07-26T07:38:48.856Z,27.68
2022-07-26T07:41:16.258Z,27.34
2022-07-26T07:43:42.995Z,27.28
2022-07-26T07:46:09.791Z,27.55
2022-07-26T07:48:41.116Z,27.68
2022-07-26T07:51:12.831Z,27.74
2022-07-26T07:53:39.662Z,27.35
2022-07-26T07:56:06.344Z,27.67
2022-07-26T07:58:34.352Z,27.59
2022-07-26T08:01:00.955Z,28.45
2022-07-26T08:03:38.656Z,26.87
2022-07-26T08:06:07.664Z,27.14
2022-07-26T08:08:34.936Z,26.68
2022-07-26T08:11:01.898Z,27.84
2022-07-26T08:13:30.530Z,27.50
2022-07-26T08:15:58.069Z,27.94
2022-07-26T08:18:27.460Z,27.14
2022-07-26T08:20:54.699Z,27.53
2022-07-26T08:23:22.366Z,28.23
2022-07-26T08:25:56.969Z,27.52
2022-07-26T08:28:48.710Z,27.57
2022-07-26T08:31:16.258Z,28.17
2022-07-26T08:33:46.355Z,29.01
2022-07-26T08:36:17.118Z,29.34
2022-07-26T08:38:44.716Z,29.18
2022-07-26T08:41:14.372Z,28.97
2022-07-26T08:43:45.232Z,29.25
2022-07-26T08:46:24.146Z,27.95
2022-07-26T08:48:51.815Z,28.30
2022-07-26T08:51:22.654Z,28.52
2022-07-26T08:53:51.128Z,27.57
2022-07-26T08:56:17.692Z,27.75
2022-07-26T08:58:45.565Z,27.86
2022-07-26T09:01:13.295Z,27.45
2022-07-26T09:03:41.528Z,28.17
2022-07-26T09:06:16.975Z,28.55
2022-07-26T09:08:45.924Z,28.94
2022-07-26T09:11:24.618Z,29.52
2022-07-26T09:13:53.773Z,30.14
2022-07-26T09:16:21.230Z,30.45
2022-07-26T09:18:48.000Z,30.09
2022-07-26T09:21:36.478Z,29.63
2022-07-26T09:24:03.184Z,28.70
2022-07-26T09:26:29.881Z,27.84
2022-07-26T09:29:12.603Z,27.05
2022-07-26T09:31:40.063Z,26.91
2022-07-26T09:34:07.596Z,26.99
2022-07-26T09:36:53.856Z,27.88
2022-07-26T09:39:33.357Z,28.19
2022-07-26T09:42:26.769Z,29.17
2022-07-26T09:44:56.590Z,30.17
2022-07-26T09:47:34.858Z,30.46
2022-07-26T09:50:20.765Z,31.02
2022-07-26T09:53:03.255Z,30.72
2022-07-26T09:55:40.957Z,31.00
2022-07-26T09:58:15.687Z,31.33
2022-07-26T10:00:43.614Z,32.30
2022-07-26T10:03:10.734Z,31.01
2022-07-26T10:05:37.877Z,30.56
2022-07-26T10:08:05.207Z,30.29
2022-07-26T10:10:35.157Z,29.89
2022-07-26T10:13:03.132Z,29.41
2022-07-26T10:15:35.890Z,30.34
2022-07-26T10:18:05.179Z,30.38
2022-07-26T10:21:01.042Z,29.34
2022-07-26T10:23:36.313Z,30.03
2022-07-26T10:26:04.947Z,31.02
2022-07-26T10:28:33.110Z,31.15
2022-07-26T10:31:20.282Z,31.40
2022-07-26T10:33:51.499Z,32.19
2022-07-26T10:36:33.568Z,31.63
2022-07-26T10:39:07.400Z,30.34
2022-07-26T10:41:44.811Z,28.47
2022-07-26T10:44:24.066Z,28.83
2022-07-26T10:47:09.239Z,28.34
2022-07-26T10:49:40.197Z,29.07
2022-07-26T10:52:18.761Z,29.72
2022-07-26T10:54:57.920Z,30.61
2022-07-26T10:57:39.123Z,29.85
2022-07-26T11:00:15.140Z,30.03
2022-07-26T11:02:44.123Z,30.48
2022-07-26T11:05:15.018Z,31.26
2022-07-26T11:08:06.367Z,31.20
2022-07-26T11:10:47.514Z,29.99
2022-07-26T11:13:16.771Z,29.49
2022-07-26T11:16:00.640Z,29.48
2022-07-26T11:18:37.146Z,28.79
2022-07-26T11:21:14.685Z,29.12
2022-07-26T11:23:45.891Z,28.23
2022-07-26T11:26:18.376Z,27.89
2022-07-26T11:28:54.300Z,27.45
2022-07-26T11:31:23.825Z,26.88
2022-07-26T11:34:23.993Z,26.83
2022-07-26T11:36:53.979Z,26.78
2022-07-26T11:39:23.032Z,26.35
2022-07-26T11:41:52.503Z,26.07
2022-07-26T11:44:21.430Z,26.13
2022-07-26T11:46:49.314Z,25.65
2022-07-26T11:52:20.779Z,26.01
2022-07-26T11:54:53.292Z,26.23
2022-07-26T11:57:20.052Z,26.48
2022-07-26T11:59:48.649Z,26.89
2022-07-26T12:02:15.956Z,26.58
2022-07-26T12:04:44.089Z,26.28
2022-07-26T12:07:13.548Z,25.91
2022-07-26T12:09:41.613Z,25.66
2022-07-26T12:12:10.646Z,25.71
2022-07-26T12:14:39.581Z,25.70
2022-07-26T12:17:18.557Z,26.27
2022-07-26T12:19:45.693Z,26.11
2022-07-26T12:22:21.150Z,26.33
2022-07-26T12:24:58.351Z,26.58
2022-07-26T12:27:29.458Z,26.54
2022-07-26T12:30:02.314Z,26.83
2022-07-26T12:32:37.848Z,26.61
2022-07-26T12:35:07.587Z,26.19
2022-07-26T12:37:53.921Z,26.16
2022-07-26T12:40:23.387Z,25.61
2022-07-26T12:42:49.979Z,25.94
2022-07-26T12:45:21.986Z,26.03
2022-07-26T12:47:51.133Z,25.50
2022-07-26T12:50:19.950Z,25.71
2022-07-26T12:52:47.178Z,25.40
2022-07-26T12:55:17.936Z,25.36
2022-07-26T12:57:47.635Z,25.57
2022-07-26T13:00:16.308Z,25.57
2022-07-26T13:02:44.544Z,25.15
2022-07-26T13:05:11.865Z,25.56
2022-07-26T13:07:39.174Z,25.92
2022-07-26T13:10:31.759Z,26.30
2022-07-26T13:12:54.563Z,26.20
2022-07-26T13:15:21.328Z,26.41
2022-07-26T13:17:48.074Z,26.48
2022-07-26T13:20:14.664Z,26.09
2022-07-26T13:22:44.054Z,26.08
2022-07-26T13:25:10.746Z,26.37
2022-07-26T13:27:41.430Z,25.93
2022-07-26T13:30:11.729Z,25.68
2022-07-26T13:32:38.308Z,25.92
2022-07-26T13:35:05.185Z,26.16
2022-07-26T13:37:31.998Z,26.85
2022-07-26T13:39:58.725Z,27.08
2022-07-26T13:42:25.389Z,26.99
2022-07-26T13:44:52.079Z,26.65
2022-07-26T13:47:18.765Z,26.70
2022-07-26T13:49:45.419Z,26.50
2022-07-26T13:52:15.689Z,26.69
2022-07-26T13:54:43.526Z,26.68
2022-07-26T13:57:10.218Z,26.51
2022-07-26T13:59:36.836Z,26.36
2022-07-26T14:02:05.246Z,26.24
2022-07-26T14:04:31.998Z,26.18
2022-07-26T14:06:58.612Z,26.13
2022-07-26T14:09:25.633Z,26.14
2022-07-26T14:11:52.188Z,26.28
2022-07-26T14:14:18.807Z,26.40
2022-07-26T14:16:49.551Z,26.26
2022-07-26T14:19:16.544Z,26.03
2022-07-26T14:21:48.846Z,26.67
2022-07-26T14:24:27.446Z,26.40
2022-07-26T14:26:58.618Z,26.59
2022-07-26T14:29:25.864Z,26.28
2022-07-26T14:31:52.633Z,26.41
2022-07-26T14:34:19.383Z,26.59
2022-07-26T14:36:46.047Z,26.79
2022-07-26T14:39:12.784Z,26.18
2022-07-26T14:41:39.486Z,26.54
2022-07-26T14:44:06.728Z,26.88
2022-07-26T14:46:33.620Z,26.70
2022-07-26T14:49:00.367Z,26.46
2022-07-26T14:51:27.156Z,26.62
2022-07-26T14:53:53.981Z,26.38
2022-07-26T14:56:20.769Z,26.14
2022-07-26T14:58:47.443Z,25.64
2022-07-26T15:01:14.223Z,26.02
2022-07-26T15:03:41.139Z,26.33
2022-07-26T15:06:08.012Z,26.61
2022-07-26T15:08:34.751Z,26.48
2022-07-26T15:11:01.489Z,26.79
2022-07-26T15:13:28.242Z,26.46
2022-07-26T15:15:54.779Z,26.15
2022-07-26T15:18:21.288Z,26.20
2022-07-26T15:20:50.439Z,25.85
2022-07-26T15:23:17.140Z,25.85
2022-07-26T15:25:43.922Z,25.75
2022-07-26T15:28:10.836Z,25.82
2022-07-26T15:30:37.441Z,25.87
2022-07-26T15:33:04.274Z,25.75
2022-07-26T15:35:31.249Z,25.65
2022-07-26T15:37:58.018Z,25.72
2022-07-26T15:40:24.951Z,24.95
2022-07-26T15:42:52.958Z,24.86
2022-07-26T15:45:20.662Z,24.65
2022-07-26T15:48:04.598Z,23.96
2022-07-26T15:50:35.057Z,23.73
2022-07-26T15:53:01.761Z,23.31
2022-07-26T15:55:28.445Z,23.23
2022-07-26T15:57:55.329Z,23.12
2022-07-26T16:00:21.914Z,22.93
2022-07-26T16:02:48.748Z,22.98
2022-07-26T16:05:16.014Z,23.04
2022-07-26T16:07:45.552Z,23.05
2022-07-26T16:10:13.926Z,23.11
2022-07-26T16:12:41.400Z,23.02
2022-07-26T16:15:10.431Z,23.18
2022-07-26T16:17:37.717Z,23.07
2022-07-26T16:20:05.271Z,22.81
2022-07-26T16:22:32.751Z,22.83
2022-07-26T16:24:59.410Z,22.54
2022-07-26T16:27:25.947Z,22.70
2022-07-26T16:29:52.722Z,22.62
2022-07-26T16:32:21.418Z,22.50
2022-07-26T16:34:48.527Z,22.38
2022-07-26T16:37:15.314Z,22.28
2022-07-26T16:39:41.978Z,22.38
2022-07-26T16:42:08.718Z,22.31
2022-07-26T16:44:36.466Z,22.35
2022-07-26T16:47:04.002Z,22.29
2022-07-26T16:49:30.909Z,22.34
2022-07-26T16:51:57.935Z,22.29
2022-07-26T16:54:25.027Z,22.28
2022-07-26T16:56:51.849Z,22.29
2022-07-26T16:59:18.867Z,22.35
2022-07-26T17:01:45.730Z,22.17
2022-07-26T17:04:12.645Z,22.12
2022-07-26T17:06:39.301Z,22.05
2022-07-26T17:09:06.021Z,22.23
2022-07-26T17:11:32.965Z,22.32
2022-07-26T17:13:59.680Z,22.19
2022-07-26T17:16:26.334Z,22.27
2022-07-26T17:18:54.787Z,22.48
2022-07-26T17:21:21.995Z,22.63
2022-07-26T17:23:49.104Z,22.64
2022-07-26T17:26:17.560Z,22.47
2022-07-26T17:28:44.372Z,22.50
2022-07-26T17:31:11.067Z,22.62
2022-07-26T17:33:37.857Z,22.75
2022-07-26T17:36:19.817Z,22.72
2022-07-26T17:38:46.631Z,22.73
2022-07-26T17:41:18.335Z,22.74
2022-07-26T17:43:45.958Z,22.85
2022-07-26T17:46:12.863Z,22.80
2022-07-26T17:48:40.114Z,22.73
2022-07-26T17:51:06.916Z,22.64
2022-07-26T17:53:34.458Z,22.75
2022-07-26T17:56:02.115Z,22.69
2022-07-26T17:58:28.884Z,22.49
2022-07-26T18:00:55.723Z,22.37
2022-07-26T18:03:23.389Z,22.58
2022-07-26T18:05:51.179Z,22.49
2022-07-26T18:08:18.192Z,22.60
2022-07-26T18:10:50.563Z,22.59
2022-07-26T18:13:17.976Z,22.54
2022-07-26T18:15:45.122Z,22.28
2022-07-26T18:18:12.326Z,22.00
2022-07-26T18:20:39.144Z,21.82
2022-07-26T18:23:06.088Z,21.55
2022-07-26T18:25:32.878Z,21.58
2022-07-26T18:28:04.703Z,21.61
2022-07-26T18:30:33.616Z,21.51
2022-07-26T18:33:00.239Z,21.45
2022-07-26T18:35:27.916Z,21.33
2022-07-26T18:37:54.808Z,21.33
2022-07-26T18:40:22.673Z,21.29
2022-07-26T18:42:49.950Z,21.40
2022-07-26T18:45:16.802Z,21.24
2022-07-26T18:47:43.830Z,21.16
2022-07-26T18:50:12.000Z,20.99
2022-07-26T18:52:42.301Z,20.92
2022-07-26T18:55:10.135Z,20.93
2022-07-26T18:57:37.471Z,20.88
2022-07-26T19:00:10.028Z,20.89
2022-07-26T19:02:36.683Z,20.96
2022-07-26T19:05:04.662Z,20.90
2022-07-26T19:07:32.001Z,20.84
2022-07-26T19:10:02.063Z,20.73
2022-07-26T19:12:28.803Z,20.52
2022-07-26T19:14:55.477Z,20.24
2022-07-26T19:17:22.681Z,20.25
2022-07-26T19:19:49.381Z,20.00
2022-07-26T19:22:16.099Z,20.05
2022-07-26T19:24:42.969Z,20.01
2022-07-26T19:27:09.772Z,20.07
2022-07-26T19:29:37.631Z,20.10
2022-07-26T19:32:05.059Z,20.17
2022-07-26T19:34:31.636Z,20.19
2022-07-26T19:36:58.614Z,20.32
2022-07-26T19:39:25.476Z,20.34
2022-07-26T19:41:52.733Z,20.36
2022-07-26T19:44:19.661Z,20.29
2022-07-26T19:46:47.590Z,20.14
2022-07-26T19:49:16.276Z,19.72
2022-07-26T19:51:43.677Z,19.56
2022-07-26T19:54:10.295Z,19.51
2022-07-26T19:56:36.866Z,19.46
2022-07-26T19:59:03.683Z,19.40
2022-07-26T20:01:30.473Z,19.44
2022-07-26T20:03:57.264Z,19.46
2022-07-26T20:06:24.027Z,19.54
2022-07-26T20:08:50.898Z,19.60
2022-07-26T20:11:22.775Z,19.49
2022-07-26T20:13:49.899Z,19.41
2022-07-26T20:16:17.051Z,19.35
2022-07-26T20:18:43.705Z,19.28
2022-07-26T20:21:10.375Z,19.19
2022-07-26T20:23:37.036Z,19.08
2022-07-26T20:26:03.759Z,18.81
2022-07-26T20:28:30.402Z,18.59
2022-07-26T20:30:57.126Z,18.62
2022-07-26T20:33:25.407Z,18.39
2022-07-26T20:35:55.074Z,18.29
2022-07-26T20:38:22.452Z,18.38
2022-07-26T20:40:49.686Z,18.19
2022-07-26T20:43:16.476Z,18.21
2022-07-26T20:45:43.463Z,18.30
2022-07-26T20:48:10.175Z,18.20
2022-07-26T20:50:36.747Z,18.07
2022-07-26T20:53:03.620Z,17.83
2022-07-26T20:55:30.169Z,17.90
2022-07-26T20:57:57.115Z,17.95
2022-07-26T21:00:25.011Z,18.02
2022-07-26T21:02:53.758Z,18.07
2022-07-26T21:05:20.870Z,18.13
2022-07-26T21:07:53.923Z,18.08
2022-07-26T21:10:26.998Z,18.18
2022-07-26T21:12:54.667Z,18.20
2022-07-26T21:15:21.300Z,17.93
2022-07-26T21:17:47.946Z,17.85
2022-07-26T21:20:14.472Z,17.85
2022-07-26T21:22:41.172Z,17.89
2022-07-26T21:25:08.245Z,17.96
2022-07-26T21:27:34.940Z,17.88
2022-07-26T21:30:02.182Z,17.88
2022-07-26T21:32:31.697Z,17.86
2022-07-26T21:34:58.909Z,17.91
2022-07-26T21:37:25.884Z,17.90
2022-07-26T21:39:52.605Z,17.98
2022-07-26T21:42:19.285Z,18.10
2022-07-26T21:44:45.978Z,18.09
2022-07-26T21:47:12.626Z,18.26
2022-07-26T21:49:39.182Z,18.20
2022-07-26T21:52:06.117Z,18.14
2022-07-26T21:54:32.888Z,18.17
2022-07-26T21:56:59.523Z,18.17
2022-07-26T21:59:26.267Z,18.09
2022-07-26T22:01:53.018Z,18.10
2022-07-26T22:04:19.714Z,18.10
2022-07-26T22:06:46.387Z,18.08
2022-07-26T22:09:13.371Z,18.09
2022-07-26T22:11:40.169Z,18.09
2022-07-26T22:14:08.521Z,18.10
2022-07-26T22:16:35.848Z,18.09
2022-07-26T22:19:02.660Z,18.08
2022-07-26T22:21:29.467Z,18.12
2022-07-26T22:23:56.151Z,18.01
2022-07-26T22:26:26.334Z,18.03
2022-07-26T22:28:53.117Z,17.97
2022-07-26T22:31:19.774Z,17.86
2022-07-26T22:33:46.508Z,17.73
2022-07-26T22:36:13.158Z,17.66
2022-07-26T22:38:39.919Z,17.69
2022-07-26T22:41:06.572Z,17.65
2022-07-26T22:43:33.180Z,17.63
2022-07-26T22:45:59.886Z,17.60
2022-07-26T22:48:26.478Z,17.65
2022-07-26T22:50:53.138Z,17.73
2022-07-26T22:53:19.747Z,17.71
2022-07-26T22:55:46.313Z,17.67
2022-07-26T22:58:12.926Z,17.60
2022-07-26T23:00:39.661Z,17.59
2022-07-26T23:03:14.637Z,17.58
2022-07-26T23:05:47.853Z,17.52
2022-07-26T23:08:46.389Z,17.56
2022-07-26T23:11:01.774Z,17.60
2022-07-26T23:13:28.455Z,17.63
2022-07-26T23:16:00.310Z,17.60
2022-07-26T23:18:28.208Z,17.63
2022-07-26T23:20:54.830Z,17.77
2022-07-26T23:23:21.506Z,17.79
2022-07-26T23:25:48.217Z,17.75
2022-07-26T23:28:24.737Z,17.64
2022-07-26T23:31:03.132Z,17.68
2022-07-26T23:33:50.922Z,17.74
2022-07-26T23:36:16.389Z,17.76
2022-07-26T23:38:42.990Z,17.71
2022-07-26T23:41:09.760Z,17.64
2022-07-26T23:43:36.479Z,17.56
2022-07-26T23:46:02.958Z,17.54
2022-07-26T23:48:30.487Z,17.45
2022-07-26T23:50:57.273Z,17.37
2022-07-26T23:53:26.764Z,17.42
2022-07-26T23:55:54.184Z,17.42
2022-07-26T23:58:21.075Z,17.41
